sensor_id;sensor_type;location;lat;lon;timestamp;temperature;humidity
55642;DHT22;41509;53.108;6.100;2023-05-07T00:00:37;13.70;99.90
55642;DHT22;41509;53.108;6.100;2023-05-07T00:03:03;13.60;99.90
55642;DHT22;41509;53.108;6.100;2023-05-07T00:05:28;13.60;99.90
55642;DHT22;41509;53.108;6.100;2023-05-07T00:07:54;13.60;99.90
55642;DHT22;41509;53.108;6.100;2023-05-07T00:10:20;13.60;99.90
55642;DHT22;41509;53.108;6.100;2023-05-07T00:12:45;13.60;99.90
55642;DHT22;41509;53.108;6.100;2023-05-07T00:15:11;13.60;99.90
55642;DHT22;41509;53.108;6.100;2023-05-07T00:17:37;13.60;99.90
55642;DHT22;41509;53.108;6.100;2023-05-07T00:20:03;13.60;99.90
55642;DHT22;41509;53.108;6.100;2023-05-07T00:22:30;13.60;99.90
55642;DHT22;41509;53.108;6.100;2023-05-07T00:24:56;13.50;99.90
55642;DHT22;41509;53.108;6.100;2023-05-07T00:27:23;13.50;99.90
55642;DHT22;41509;53.108;6.100;2023-05-07T00:29:49;13.50;99.90
55642;DHT22;41509;53.108;6.100;2023-05-07T00:32:14;13.50;99.90
55642;DHT22;41509;53.108;6.100;2023-05-07T00:34:40;13.50;99.90
55642;DHT22;41509;53.108;6.100;2023-05-07T00:37:06;13.50;99.90
55642;DHT22;41509;53.108;6.100;2023-05-07T00:39:35;13.50;99.90
55642;DHT22;41509;53.108;6.100;2023-05-07T00:42:01;13.50;99.90
55642;DHT22;41509;53.108;6.100;2023-05-07T00:44:28;13.50;99.90
55642;DHT22;41509;53.108;6.100;2023-05-07T00:46:56;13.50;99.90
55642;DHT22;41509;53.108;6.100;2023-05-07T00:49:24;13.40;99.90
55642;DHT22;41509;53.108;6.100;2023-05-07T00:51:51;13.50;99.90
55642;DHT22;41509;53.108;6.100;2023-05-07T00:54:17;13.50;99.90
55642;DHT22;41509;53.108;6.100;2023-05-07T00:56:42;13.50;99.90
55642;DHT22;41509;53.108;6.100;2023-05-07T00:59:08;13.50;99.90
55642;DHT22;41509;53.108;6.100;2023-05-07T01:01:34;13.40;99.90
55642;DHT22;41509;53.108;6.100;2023-05-07T01:04:00;13.40;99.90
55642;DHT22;41509;53.108;6.100;2023-05-07T01:06:26;13.40;99.90
55642;DHT22;41509;53.108;6.100;2023-05-07T01:08:53;13.40;99.90
55642;DHT22;41509;53.108;6.100;2023-05-07T01:11:22;13.40;99.90
55642;DHT22;41509;53.108;6.100;2023-05-07T01:13:49;13.40;99.90
55642;DHT22;41509;53.108;6.100;2023-05-07T01:16:15;13.30;99.90
55642;DHT22;41509;53.108;6.100;2023-05-07T01:18:41;13.40;99.90
55642;DHT22;41509;53.108;6.100;2023-05-07T01:21:10;13.40;99.90
55642;DHT22;41509;53.108;6.100;2023-05-07T01:23:36;13.40;99.90
55642;DHT22;41509;53.108;6.100;2023-05-07T01:26:02;13.30;99.90
55642;DHT22;41509;53.108;6.100;2023-05-07T01:28:28;13.30;99.90
55642;DHT22;41509;53.108;6.100;2023-05-07T01:30:59;13.30;99.90
55642;DHT22;41509;53.108;6.100;2023-05-07T01:33:30;13.20;99.90
55642;DHT22;41509;53.108;6.100;2023-05-07T01:35:57;13.20;99.90
55642;DHT22;41509;53.108;6.100;2023-05-07T01:38:25;13.20;99.90
55642;DHT22;41509;53.108;6.100;2023-05-07T01:40:52;13.20;99.90
55642;DHT22;41509;53.108;6.100;2023-05-07T01:43:19;13.20;99.90
55642;DHT22;41509;53.108;6.100;2023-05-07T01:45:45;13.20;99.90
55642;DHT22;41509;53.108;6.100;2023-05-07T01:48:12;13.10;99.90
55642;DHT22;41509;53.108;6.100;2023-05-07T01:50:39;13.10;99.90
55642;DHT22;41509;53.108;6.100;2023-05-07T01:53:05;13.10;99.90
55642;DHT22;41509;53.108;6.100;2023-05-07T01:55:31;13.10;99.90
55642;DHT22;41509;53.108;6.100;2023-05-07T01:57:57;13.10;99.90
55642;DHT22;41509;53.108;6.100;2023-05-07T02:00:23;13.10;99.90
55642;DHT22;41509;53.108;6.100;2023-05-07T02:02:48;13.10;99.90
55642;DHT22;41509;53.108;6.100;2023-05-07T02:05:14;13.10;99.90
55642;DHT22;41509;53.108;6.100;2023-05-07T02:07:40;13.00;99.90
55642;DHT22;41509;53.108;6.100;2023-05-07T02:10:06;13.10;99.90
55642;DHT22;41509;53.108;6.100;2023-05-07T02:12:31;13.00;99.90
55642;DHT22;41509;53.108;6.100;2023-05-07T02:14:57;13.00;99.90
55642;DHT22;41509;53.108;6.100;2023-05-07T02:17:23;12.90;99.90
55642;DHT22;41509;53.108;6.100;2023-05-07T02:19:48;13.00;99.90
55642;DHT22;41509;53.108;6.100;2023-05-07T02:22:14;12.90;99.90
55642;DHT22;41509;53.108;6.100;2023-05-07T02:24:39;12.90;99.90
55642;DHT22;41509;53.108;6.100;2023-05-07T02:27:05;12.90;99.90
55642;DHT22;41509;53.108;6.100;2023-05-07T02:29:31;12.90;99.90
55642;DHT22;41509;53.108;6.100;2023-05-07T02:31:56;12.90;99.90
55642;DHT22;41509;53.108;6.100;2023-05-07T02:34:22;12.80;99.90
55642;DHT22;41509;53.108;6.100;2023-05-07T02:36:48;12.80;99.90
55642;DHT22;41509;53.108;6.100;2023-05-07T02:39:13;12.80;99.90
55642;DHT22;41509;53.108;6.100;2023-05-07T02:41:39;12.80;99.90
55642;DHT22;41509;53.108;6.100;2023-05-07T02:44:05;12.80;99.90
55642;DHT22;41509;53.108;6.100;2023-05-07T02:46:31;12.80;99.90
55642;DHT22;41509;53.108;6.100;2023-05-07T02:48:56;12.70;99.90
55642;DHT22;41509;53.108;6.100;2023-05-07T02:51:23;12.70;99.90
55642;DHT22;41509;53.108;6.100;2023-05-07T02:53:48;12.70;99.90
55642;DHT22;41509;53.108;6.100;2023-05-07T02:56:14;12.60;99.90
55642;DHT22;41509;53.108;6.100;2023-05-07T02:58:40;12.60;99.90
55642;DHT22;41509;53.108;6.100;2023-05-07T03:01:07;12.60;99.90
55642;DHT22;41509;53.108;6.100;2023-05-07T03:03:33;12.60;99.90
55642;DHT22;41509;53.108;6.100;2023-05-07T03:05:59;12.50;99.90
55642;DHT22;41509;53.108;6.100;2023-05-07T03:08:25;12.60;99.90
55642;DHT22;41509;53.108;6.100;2023-05-07T03:10:51;12.50;99.90
55642;DHT22;41509;53.108;6.100;2023-05-07T03:13:16;12.50;99.90
55642;DHT22;41509;53.108;6.100;2023-05-07T03:15:42;12.50;99.90
55642;DHT22;41509;53.108;6.100;2023-05-07T03:18:08;12.50;99.90
55642;DHT22;41509;53.108;6.100;2023-05-07T03:20:34;12.40;99.90
55642;DHT22;41509;53.108;6.100;2023-05-07T03:23:00;12.40;99.90
55642;DHT22;41509;53.108;6.100;2023-05-07T03:25:25;12.50;99.90
55642;DHT22;41509;53.108;6.100;2023-05-07T03:27:51;12.50;99.90
55642;DHT22;41509;53.108;6.100;2023-05-07T03:30:17;12.40;99.90
55642;DHT22;41509;53.108;6.100;2023-05-07T03:32:42;12.40;99.90
55642;DHT22;41509;53.108;6.100;2023-05-07T03:35:08;12.30;99.90
55642;DHT22;41509;53.108;6.100;2023-05-07T03:37:34;12.30;99.90
55642;DHT22;41509;53.108;6.100;2023-05-07T03:39:59;12.40;99.90
55642;DHT22;41509;53.108;6.100;2023-05-07T03:42:25;12.30;99.90
55642;DHT22;41509;53.108;6.100;2023-05-07T03:44:51;12.30;99.90
55642;DHT22;41509;53.108;6.100;2023-05-07T03:47:16;12.30;99.90
55642;DHT22;41509;53.108;6.100;2023-05-07T03:49:42;12.30;99.90
55642;DHT22;41509;53.108;6.100;2023-05-07T03:52:07;12.20;99.90
55642;DHT22;41509;53.108;6.100;2023-05-07T03:54:33;12.30;99.90
55642;DHT22;41509;53.108;6.100;2023-05-07T03:56:59;12.20;99.90
55642;DHT22;41509;53.108;6.100;2023-05-07T03:59:24;12.20;99.90
55642;DHT22;41509;53.108;6.100;2023-05-07T04:01:50;12.20;99.90
55642;DHT22;41509;53.108;6.100;2023-05-07T04:04:16;12.10;99.90
55642;DHT22;41509;53.108;6.100;2023-05-07T04:06:42;12.10;99.90
55642;DHT22;41509;53.108;6.100;2023-05-07T04:09:08;12.10;99.90
55642;DHT22;41509;53.108;6.100;2023-05-07T04:11:35;12.10;99.90
55642;DHT22;41509;53.108;6.100;2023-05-07T04:14:01;12.10;99.90
55642;DHT22;41509;53.108;6.100;2023-05-07T04:16:26;12.10;99.90
55642;DHT22;41509;53.108;6.100;2023-05-07T04:18:52;12.10;99.90
55642;DHT22;41509;53.108;6.100;2023-05-07T04:21:19;12.00;99.90
55642;DHT22;41509;53.108;6.100;2023-05-07T04:23:49;12.00;99.90
55642;DHT22;41509;53.108;6.100;2023-05-07T04:26:15;12.00;99.90
55642;DHT22;41509;53.108;6.100;2023-05-07T04:28:41;12.00;99.90
55642;DHT22;41509;53.108;6.100;2023-05-07T04:31:07;11.90;99.90
55642;DHT22;41509;53.108;6.100;2023-05-07T04:33:33;11.90;99.90
55642;DHT22;41509;53.108;6.100;2023-05-07T04:36:01;11.90;99.90
55642;DHT22;41509;53.108;6.100;2023-05-07T04:38:29;11.90;99.90
55642;DHT22;41509;53.108;6.100;2023-05-07T04:40:55;11.90;99.90
55642;DHT22;41509;53.108;6.100;2023-05-07T04:43:22;11.90;99.90
55642;DHT22;41509;53.108;6.100;2023-05-07T04:45:47;11.90;99.90
55642;DHT22;41509;53.108;6.100;2023-05-07T04:48:14;11.90;99.90
55642;DHT22;41509;53.108;6.100;2023-05-07T04:50:40;11.90;99.90
55642;DHT22;41509;53.108;6.100;2023-05-07T04:53:06;11.90;99.90
55642;DHT22;41509;53.108;6.100;2023-05-07T04:55:32;11.90;99.90
55642;DHT22;41509;53.108;6.100;2023-05-07T04:57:57;11.80;99.90
55642;DHT22;41509;53.108;6.100;2023-05-07T05:00:23;11.90;99.90
55642;DHT22;41509;53.108;6.100;2023-05-07T05:02:50;11.90;99.90
55642;DHT22;41509;53.108;6.100;2023-05-07T05:05:16;11.90;99.90
55642;DHT22;41509;53.108;6.100;2023-05-07T05:07:41;11.90;99.90
55642;DHT22;41509;53.108;6.100;2023-05-07T05:10:07;11.90;99.90
55642;DHT22;41509;53.108;6.100;2023-05-07T05:12:33;11.90;99.90
55642;DHT22;41509;53.108;6.100;2023-05-07T05:14:58;11.90;99.90
55642;DHT22;41509;53.108;6.100;2023-05-07T05:17:24;11.90;99.90
55642;DHT22;41509;53.108;6.100;2023-05-07T05:19:49;11.90;99.90
55642;DHT22;41509;53.108;6.100;2023-05-07T05:22:16;11.90;99.90
55642;DHT22;41509;53.108;6.100;2023-05-07T05:24:42;11.90;99.90
55642;DHT22;41509;53.108;6.100;2023-05-07T05:27:07;11.90;99.90
55642;DHT22;41509;53.108;6.100;2023-05-07T05:29:33;12.00;99.90
55642;DHT22;41509;53.108;6.100;2023-05-07T05:31:59;11.90;99.90
55642;DHT22;41509;53.108;6.100;2023-05-07T05:34:24;11.90;99.90
55642;DHT22;41509;53.108;6.100;2023-05-07T05:36:50;12.00;99.90
55642;DHT22;41509;53.108;6.100;2023-05-07T05:39:15;12.00;99.90
55642;DHT22;41509;53.108;6.100;2023-05-07T05:41:41;12.00;99.90
55642;DHT22;41509;53.108;6.100;2023-05-07T05:44:07;12.00;99.90
55642;DHT22;41509;53.108;6.100;2023-05-07T05:46:32;12.00;99.90
55642;DHT22;41509;53.108;6.100;2023-05-07T05:48:58;12.00;99.90
55642;DHT22;41509;53.108;6.100;2023-05-07T05:51:23;12.00;99.90
55642;DHT22;41509;53.108;6.100;2023-05-07T05:53:49;12.10;99.90
55642;DHT22;41509;53.108;6.100;2023-05-07T05:56:16;12.10;99.90
55642;DHT22;41509;53.108;6.100;2023-05-07T05:58:41;12.10;99.90
55642;DHT22;41509;53.108;6.100;2023-05-07T06:01:07;12.10;99.90
55642;DHT22;41509;53.108;6.100;2023-05-07T06:03:33;12.10;99.90
55642;DHT22;41509;53.108;6.100;2023-05-07T06:05:58;12.10;99.90
55642;DHT22;41509;53.108;6.100;2023-05-07T06:08:25;12.20;99.90
55642;DHT22;41509;53.108;6.100;2023-05-07T06:10:51;12.20;99.90
55642;DHT22;41509;53.108;6.100;2023-05-07T06:13:17;12.10;99.90
55642;DHT22;41509;53.108;6.100;2023-05-07T06:15:43;12.20;99.90
55642;DHT22;41509;53.108;6.100;2023-05-07T06:18:08;12.10;99.90
55642;DHT22;41509;53.108;6.100;2023-05-07T06:20:34;12.20;99.90
55642;DHT22;41509;53.108;6.100;2023-05-07T06:22:59;12.20;99.90
55642;DHT22;41509;53.108;6.100;2023-05-07T06:25:25;12.20;99.90
55642;DHT22;41509;53.108;6.100;2023-05-07T06:27:51;12.20;99.90
55642;DHT22;41509;53.108;6.100;2023-05-07T06:30:16;12.20;99.90
55642;DHT22;41509;53.108;6.100;2023-05-07T06:32:42;12.30;99.90
55642;DHT22;41509;53.108;6.100;2023-05-07T06:35:08;12.30;99.90
55642;DHT22;41509;53.108;6.100;2023-05-07T06:37:33;12.30;99.90
55642;DHT22;41509;53.108;6.100;2023-05-07T06:39:59;12.40;99.90
55642;DHT22;41509;53.108;6.100;2023-05-07T06:42:25;12.40;99.90
55642;DHT22;41509;53.108;6.100;2023-05-07T06:44:50;12.40;99.90
55642;DHT22;41509;53.108;6.100;2023-05-07T06:47:16;12.50;99.90
55642;DHT22;41509;53.108;6.100;2023-05-07T06:49:41;12.50;99.90
55642;DHT22;41509;53.108;6.100;2023-05-07T06:52:07;12.50;99.90
55642;DHT22;41509;53.108;6.100;2023-05-07T06:54:33;12.50;99.90
55642;DHT22;41509;53.108;6.100;2023-05-07T06:56:58;12.50;99.90
55642;DHT22;41509;53.108;6.100;2023-05-07T06:59:24;12.50;99.90
55642;DHT22;41509;53.108;6.100;2023-05-07T07:01:50;12.60;99.90
55642;DHT22;41509;53.108;6.100;2023-05-07T07:04:15;12.60;99.90
55642;DHT22;41509;53.108;6.100;2023-05-07T07:06:41;12.60;99.90
55642;DHT22;41509;53.108;6.100;2023-05-07T07:09:07;12.60;99.90
55642;DHT22;41509;53.108;6.100;2023-05-07T07:11:32;12.60;99.90
55642;DHT22;41509;53.108;6.100;2023-05-07T07:13:58;12.60;99.90
55642;DHT22;41509;53.108;6.100;2023-05-07T07:16:24;12.60;99.90
55642;DHT22;41509;53.108;6.100;2023-05-07T07:18:50;12.60;99.90
55642;DHT22;41509;53.108;6.100;2023-05-07T07:21:16;12.70;99.90
55642;DHT22;41509;53.108;6.100;2023-05-07T07:23:41;12.70;99.90
55642;DHT22;41509;53.108;6.100;2023-05-07T07:26:07;12.70;99.90
55642;DHT22;41509;53.108;6.100;2023-05-07T07:28:32;12.70;99.90
55642;DHT22;41509;53.108;6.100;2023-05-07T07:30:58;12.70;99.90
55642;DHT22;41509;53.108;6.100;2023-05-07T07:33:24;12.70;99.90
55642;DHT22;41509;53.108;6.100;2023-05-07T07:35:49;12.70;99.90
55642;DHT22;41509;53.108;6.100;2023-05-07T07:38:15;12.70;99.90
55642;DHT22;41509;53.108;6.100;2023-05-07T07:40:41;12.70;99.90
55642;DHT22;41509;53.108;6.100;2023-05-07T07:43:06;12.80;99.90
55642;DHT22;41509;53.108;6.100;2023-05-07T07:45:32;12.80;99.90
55642;DHT22;41509;53.108;6.100;2023-05-07T07:47:58;12.90;99.90
55642;DHT22;41509;53.108;6.100;2023-05-07T07:50:23;12.90;99.90
55642;DHT22;41509;53.108;6.100;2023-05-07T07:52:49;13.00;99.90
55642;DHT22;41509;53.108;6.100;2023-05-07T07:55:14;13.10;99.90
55642;DHT22;41509;53.108;6.100;2023-05-07T07:57:43;13.10;99.90
55642;DHT22;41509;53.108;6.100;2023-05-07T08:00:09;13.20;99.90
55642;DHT22;41509;53.108;6.100;2023-05-07T08:02:35;13.20;99.90
55642;DHT22;41509;53.108;6.100;2023-05-07T08:05:03;13.30;99.90
55642;DHT22;41509;53.108;6.100;2023-05-07T08:07:29;13.40;99.90
55642;DHT22;41509;53.108;6.100;2023-05-07T08:09:57;13.40;99.90
55642;DHT22;41509;53.108;6.100;2023-05-07T08:12:23;13.50;99.90
55642;DHT22;41509;53.108;6.100;2023-05-07T08:14:51;13.50;99.90
55642;DHT22;41509;53.108;6.100;2023-05-07T08:17:17;13.50;99.90
55642;DHT22;41509;53.108;6.100;2023-05-07T08:19:42;13.50;99.90
55642;DHT22;41509;53.108;6.100;2023-05-07T08:22:10;13.60;99.90
55642;DHT22;41509;53.108;6.100;2023-05-07T08:24:36;13.60;99.90
55642;DHT22;41509;53.108;6.100;2023-05-07T08:27:02;13.70;99.90
55642;DHT22;41509;53.108;6.100;2023-05-07T08:29:27;13.80;99.90
55642;DHT22;41509;53.108;6.100;2023-05-07T08:31:53;13.80;99.90
55642;DHT22;41509;53.108;6.100;2023-05-07T08:34:19;13.90;99.90
55642;DHT22;41509;53.108;6.100;2023-05-07T08:36:45;13.90;99.90
55642;DHT22;41509;53.108;6.100;2023-05-07T08:39:14;14.10;99.90
55642;DHT22;41509;53.108;6.100;2023-05-07T08:41:40;14.10;99.90
55642;DHT22;41509;53.108;6.100;2023-05-07T08:44:12;14.10;99.90
55642;DHT22;41509;53.108;6.100;2023-05-07T08:46:39;14.20;99.90
55642;DHT22;41509;53.108;6.100;2023-05-07T08:49:07;14.30;99.90
55642;DHT22;41509;53.108;6.100;2023-05-07T08:51:33;14.30;99.90
55642;DHT22;41509;53.108;6.100;2023-05-07T08:53:59;14.40;99.90
55642;DHT22;41509;53.108;6.100;2023-05-07T08:56:26;14.40;99.90
55642;DHT22;41509;53.108;6.100;2023-05-07T08:58:54;14.40;99.90
55642;DHT22;41509;53.108;6.100;2023-05-07T09:01:24;14.40;99.90
55642;DHT22;41509;53.108;6.100;2023-05-07T09:03:51;14.40;99.90
55642;DHT22;41509;53.108;6.100;2023-05-07T09:06:19;14.50;99.90
55642;DHT22;41509;53.108;6.100;2023-05-07T09:08:53;14.50;99.90
55642;DHT22;41509;53.108;6.100;2023-05-07T09:11:23;14.50;99.90
55642;DHT22;41509;53.108;6.100;2023-05-07T09:13:53;14.60;99.90
55642;DHT22;41509;53.108;6.100;2023-05-07T09:16:21;14.70;99.90
55642;DHT22;41509;53.108;6.100;2023-05-07T09:18:50;14.80;99.90
55642;DHT22;41509;53.108;6.100;2023-05-07T09:21:17;14.90;99.90
55642;DHT22;41509;53.108;6.100;2023-05-07T09:23:45;14.90;99.90
55642;DHT22;41509;53.108;6.100;2023-05-07T09:26:10;15.00;99.90
55642;DHT22;41509;53.108;6.100;2023-05-07T09:28:42;15.10;99.90
55642;DHT22;41509;53.108;6.100;2023-05-07T09:31:11;15.10;99.90
55642;DHT22;41509;53.108;6.100;2023-05-07T09:33:38;15.20;99.90
55642;DHT22;41509;53.108;6.100;2023-05-07T09:36:05;15.20;99.90
55642;DHT22;41509;53.108;6.100;2023-05-07T09:38:32;15.30;99.90
55642;DHT22;41509;53.108;6.100;2023-05-07T09:41:13;15.40;99.90
55642;DHT22;41509;53.108;6.100;2023-05-07T09:43:40;15.40;99.90
55642;DHT22;41509;53.108;6.100;2023-05-07T09:46:22;15.40;99.90
55642;DHT22;41509;53.108;6.100;2023-05-07T09:48:53;15.50;99.90
55642;DHT22;41509;53.108;6.100;2023-05-07T09:51:30;15.60;99.90
55642;DHT22;41509;53.108;6.100;2023-05-07T09:53:57;15.60;99.90
55642;DHT22;41509;53.108;6.100;2023-05-07T09:56:25;15.70;99.90
55642;DHT22;41509;53.108;6.100;2023-05-07T09:58:54;15.80;99.90
55642;DHT22;41509;53.108;6.100;2023-05-07T10:01:21;15.80;99.90
55642;DHT22;41509;53.108;6.100;2023-05-07T10:03:49;15.90;99.90
55642;DHT22;41509;53.108;6.100;2023-05-07T10:06:16;16.00;99.90
55642;DHT22;41509;53.108;6.100;2023-05-07T10:08:42;16.00;99.90
55642;DHT22;41509;53.108;6.100;2023-05-07T10:11:09;16.10;99.90
55642;DHT22;41509;53.108;6.100;2023-05-07T10:13:38;16.20;99.90
55642;DHT22;41509;53.108;6.100;2023-05-07T10:16:04;16.20;99.90
55642;DHT22;41509;53.108;6.100;2023-05-07T10:18:33;16.20;99.90
55642;DHT22;41509;53.108;6.100;2023-05-07T10:21:06;16.20;99.90
55642;DHT22;41509;53.108;6.100;2023-05-07T10:23:35;16.10;99.90
55642;DHT22;41509;53.108;6.100;2023-05-07T10:26:04;16.20;99.90
55642;DHT22;41509;53.108;6.100;2023-05-07T10:28:33;16.20;99.90
55642;DHT22;41509;53.108;6.100;2023-05-07T10:33:34;16.40;99.90
55642;DHT22;41509;53.108;6.100;2023-05-07T10:36:02;16.50;99.90
55642;DHT22;41509;53.108;6.100;2023-05-07T10:38:30;16.60;99.90
55642;DHT22;41509;53.108;6.100;2023-05-07T10:40:55;16.70;99.90
55642;DHT22;41509;53.108;6.100;2023-05-07T10:43:21;16.90;99.90
55642;DHT22;41509;53.108;6.100;2023-05-07T10:46:17;17.00;99.90
55642;DHT22;41509;53.108;6.100;2023-05-07T10:49:12;17.10;99.90
55642;DHT22;41509;53.108;6.100;2023-05-07T10:51:38;17.20;99.90
55642;DHT22;41509;53.108;6.100;2023-05-07T10:56:40;17.30;99.90
55642;DHT22;41509;53.108;6.100;2023-05-07T11:04:16;17.60;99.90
55642;DHT22;41509;53.108;6.100;2023-05-07T11:15:07;17.90;99.90
55642;DHT22;41509;53.108;6.100;2023-05-07T11:17:34;18.00;99.90
55642;DHT22;41509;53.108;6.100;2023-05-07T11:20:01;18.00;99.90
55642;DHT22;41509;53.108;6.100;2023-05-07T11:25:03;18.20;99.90
55642;DHT22;41509;53.108;6.100;2023-05-07T11:27:29;18.30;99.90
55642;DHT22;41509;53.108;6.100;2023-05-07T11:29:57;18.40;99.90
55642;DHT22;41509;53.108;6.100;2023-05-07T11:32:29;18.50;99.90
55642;DHT22;41509;53.108;6.100;2023-05-07T11:34:56;18.50;99.90
55642;DHT22;41509;53.108;6.100;2023-05-07T11:37:24;18.60;99.90
55642;DHT22;41509;53.108;6.100;2023-05-07T11:39:50;18.70;99.90
55642;DHT22;41509;53.108;6.100;2023-05-07T11:42:34;18.70;99.90
55642;DHT22;41509;53.108;6.100;2023-05-07T11:45:01;18.70;99.90
55642;DHT22;41509;53.108;6.100;2023-05-07T11:47:26;18.90;99.90
55642;DHT22;41509;53.108;6.100;2023-05-07T11:49:55;19.00;99.90
55642;DHT22;41509;53.108;6.100;2023-05-07T11:52:24;19.10;99.90
55642;DHT22;41509;53.108;6.100;2023-05-07T11:54:55;19.20;99.90
55642;DHT22;41509;53.108;6.100;2023-05-07T11:57:22;19.40;99.90
55642;DHT22;41509;53.108;6.100;2023-05-07T11:59:48;19.40;99.90
55642;DHT22;41509;53.108;6.100;2023-05-07T12:02:17;19.40;99.90
55642;DHT22;41509;53.108;6.100;2023-05-07T12:04:44;19.40;99.90
55642;DHT22;41509;53.108;6.100;2023-05-07T12:07:14;19.40;99.90
55642;DHT22;41509;53.108;6.100;2023-05-07T12:09:44;19.40;99.90
55642;DHT22;41509;53.108;6.100;2023-05-07T12:12:09;19.30;99.90
55642;DHT22;41509;53.108;6.100;2023-05-07T12:14:42;19.40;99.90
55642;DHT22;41509;53.108;6.100;2023-05-07T12:17:10;19.40;99.90
55642;DHT22;41509;53.108;6.100;2023-05-07T12:19:37;19.40;99.90
55642;DHT22;41509;53.108;6.100;2023-05-07T12:22:03;19.50;99.90
55642;DHT22;41509;53.108;6.100;2023-05-07T12:24:41;19.70;99.90
55642;DHT22;41509;53.108;6.100;2023-05-07T12:27:06;19.90;99.90
55642;DHT22;41509;53.108;6.100;2023-05-07T12:29:32;20.20;99.90
55642;DHT22;41509;53.108;6.100;2023-05-07T12:31:58;20.30;99.90
55642;DHT22;41509;53.108;6.100;2023-05-07T12:34:24;20.30;99.90
55642;DHT22;41509;53.108;6.100;2023-05-07T12:36:49;20.40;99.90
55642;DHT22;41509;53.108;6.100;2023-05-07T12:39:15;20.40;99.90
55642;DHT22;41509;53.108;6.100;2023-05-07T12:41:58;20.50;99.90
55642;DHT22;41509;53.108;6.100;2023-05-07T12:44:25;20.60;99.90
55642;DHT22;41509;53.108;6.100;2023-05-07T12:46:54;20.80;99.90
55642;DHT22;41509;53.108;6.100;2023-05-07T12:49:23;20.80;99.90
55642;DHT22;41509;53.108;6.100;2023-05-07T12:51:50;20.90;99.90
55642;DHT22;41509;53.108;6.100;2023-05-07T12:54:32;20.90;99.90
55642;DHT22;41509;53.108;6.100;2023-05-07T12:57:04;21.00;99.90
55642;DHT22;41509;53.108;6.100;2023-05-07T12:59:35;21.10;99.90
55642;DHT22;41509;53.108;6.100;2023-05-07T13:02:01;21.00;99.90
55642;DHT22;41509;53.108;6.100;2023-05-07T13:04:27;21.20;99.90
55642;DHT22;41509;53.108;6.100;2023-05-07T13:07:00;21.30;99.90
55642;DHT22;41509;53.108;6.100;2023-05-07T13:09:26;21.30;99.90
55642;DHT22;41509;53.108;6.100;2023-05-07T13:11:51;21.40;99.90
55642;DHT22;41509;53.108;6.100;2023-05-07T13:14:17;21.50;99.90
55642;DHT22;41509;53.108;6.100;2023-05-07T13:16:43;21.50;99.90
55642;DHT22;41509;53.108;6.100;2023-05-07T13:19:08;21.50;99.90
55642;DHT22;41509;53.108;6.100;2023-05-07T13:21:34;21.50;99.90
55642;DHT22;41509;53.108;6.100;2023-05-07T13:24:00;21.50;99.90
55642;DHT22;41509;53.108;6.100;2023-05-07T13:26:25;21.50;99.90
55642;DHT22;41509;53.108;6.100;2023-05-07T13:28:52;21.50;99.90
55642;DHT22;41509;53.108;6.100;2023-05-07T13:31:18;21.60;99.90
55642;DHT22;41509;53.108;6.100;2023-05-07T13:33:43;21.60;99.90
55642;DHT22;41509;53.108;6.100;2023-05-07T13:36:09;21.60;99.90
55642;DHT22;41509;53.108;6.100;2023-05-07T13:38:35;21.70;99.90
55642;DHT22;41509;53.108;6.100;2023-05-07T13:41:01;21.80;99.90
55642;DHT22;41509;53.108;6.100;2023-05-07T13:43:26;21.90;99.90
55642;DHT22;41509;53.108;6.100;2023-05-07T13:45:54;21.90;99.90
55642;DHT22;41509;53.108;6.100;2023-05-07T13:48:20;22.00;99.90
55642;DHT22;41509;53.108;6.100;2023-05-07T13:50:46;22.00;99.90
55642;DHT22;41509;53.108;6.100;2023-05-07T13:53:11;22.00;99.90
55642;DHT22;41509;53.108;6.100;2023-05-07T13:55:37;21.90;99.90
55642;DHT22;41509;53.108;6.100;2023-05-07T13:58:05;21.80;99.90
55642;DHT22;41509;53.108;6.100;2023-05-07T14:00:31;21.90;99.90
55642;DHT22;41509;53.108;6.100;2023-05-07T14:02:56;21.90;99.90
55642;DHT22;41509;53.108;6.100;2023-05-07T14:05:23;21.80;99.90
55642;DHT22;41509;53.108;6.100;2023-05-07T14:07:51;21.80;99.90
55642;DHT22;41509;53.108;6.100;2023-05-07T14:10:18;21.80;99.90
55642;DHT22;41509;53.108;6.100;2023-05-07T14:12:46;21.80;99.90
55642;DHT22;41509;53.108;6.100;2023-05-07T14:15:13;21.80;99.90
55642;DHT22;41509;53.108;6.100;2023-05-07T14:17:38;21.80;99.90
55642;DHT22;41509;53.108;6.100;2023-05-07T14:20:04;21.70;99.90
55642;DHT22;41509;53.108;6.100;2023-05-07T14:22:31;21.70;99.90
55642;DHT22;41509;53.108;6.100;2023-05-07T14:24:57;21.60;99.90
55642;DHT22;41509;53.108;6.100;2023-05-07T14:27:23;21.50;99.90
55642;DHT22;41509;53.108;6.100;2023-05-07T14:29:48;21.40;99.90
55642;DHT22;41509;53.108;6.100;2023-05-07T14:32:17;21.30;99.90
55642;DHT22;41509;53.108;6.100;2023-05-07T14:34:43;21.30;99.90
55642;DHT22;41509;53.108;6.100;2023-05-07T14:37:09;21.30;99.90
55642;DHT22;41509;53.108;6.100;2023-05-07T14:39:35;21.40;99.90
55642;DHT22;41509;53.108;6.100;2023-05-07T14:42:01;21.50;99.90
55642;DHT22;41509;53.108;6.100;2023-05-07T14:44:26;21.60;99.90
55642;DHT22;41509;53.108;6.100;2023-05-07T14:46:54;21.80;99.90
55642;DHT22;41509;53.108;6.100;2023-05-07T14:49:20;21.90;99.90
55642;DHT22;41509;53.108;6.100;2023-05-07T14:51:46;22.00;99.90
55642;DHT22;41509;53.108;6.100;2023-05-07T14:54:15;22.20;99.90
55642;DHT22;41509;53.108;6.100;2023-05-07T14:56:41;22.20;99.90
55642;DHT22;41509;53.108;6.100;2023-05-07T14:59:07;22.20;99.90
55642;DHT22;41509;53.108;6.100;2023-05-07T15:01:34;22.20;99.90
55642;DHT22;41509;53.108;6.100;2023-05-07T15:04:00;22.30;99.90
55642;DHT22;41509;53.108;6.100;2023-05-07T15:06:26;22.20;99.90
55642;DHT22;41509;53.108;6.100;2023-05-07T15:08:52;22.10;99.90
55642;DHT22;41509;53.108;6.100;2023-05-07T15:11:17;21.90;99.90
55642;DHT22;41509;53.108;6.100;2023-05-07T15:13:43;21.80;99.90
55642;DHT22;41509;53.108;6.100;2023-05-07T15:16:09;21.60;99.90
55642;DHT22;41509;53.108;6.100;2023-05-07T15:18:34;21.50;99.90
55642;DHT22;41509;53.108;6.100;2023-05-07T15:21:00;21.50;99.90
55642;DHT22;41509;53.108;6.100;2023-05-07T15:23:26;21.50;99.90
55642;DHT22;41509;53.108;6.100;2023-05-07T15:25:52;21.60;99.90
55642;DHT22;41509;53.108;6.100;2023-05-07T15:28:18;21.60;99.90
55642;DHT22;41509;53.108;6.100;2023-05-07T15:30:44;21.70;99.90
55642;DHT22;41509;53.108;6.100;2023-05-07T15:33:09;21.70;99.90
55642;DHT22;41509;53.108;6.100;2023-05-07T15:35:35;21.80;99.90
55642;DHT22;41509;53.108;6.100;2023-05-07T15:38:01;21.80;99.90
55642;DHT22;41509;53.108;6.100;2023-05-07T15:40:28;21.60;99.90
55642;DHT22;41509;53.108;6.100;2023-05-07T15:42:54;21.50;99.90
55642;DHT22;41509;53.108;6.100;2023-05-07T15:45:20;21.30;99.90
55642;DHT22;41509;53.108;6.100;2023-05-07T15:47:46;21.10;99.90